sensor_id;sensor_type;location;lat;lon;timestamp;P1;durP1;ratioP1;P2;durP2;ratioP2
57697;SDS011;43531;52.152;6.366;2022-11-23T00:00:06;7.38;;;4.53;;
57697;SDS011;43531;52.152;6.366;2022-11-23T00:00:39;8.57;;;4.88;;
57697;SDS011;43531;52.152;6.366;2022-11-23T00:01:20;4.72;;;4.15;;
57697;SDS011;43531;52.152;6.366;2022-11-23T00:01:54;5.53;;;4.43;;
57697;SDS011;43531;52.152;6.366;2022-11-23T00:02:26;8.82;;;4.43;;
57697;SDS011;43531;52.152;6.366;2022-11-23T00:02:58;8.80;;;5.00;;
57697;SDS011;43531;52.152;6.366;2022-11-23T00:03:30;7.93;;;4.43;;
57697;SDS011;43531;52.152;6.366;2022-11-23T00:04:03;10.38;;;5.10;;
57697;SDS011;43531;52.152;6.366;2022-11-23T00:04:39;7.95;;;5.00;;
57697;SDS011;43531;52.152;6.366;2022-11-23T00:05:10;8.05;;;4.40;;
57697;SDS011;43531;52.152;6.366;2022-11-23T00:05:42;9.57;;;5.00;;
57697;SDS011;43531;52.152;6.366;2022-11-23T00:06:13;9.93;;;5.10;;
57697;SDS011;43531;52.152;6.366;2022-11-23T00:06:45;12.68;;;5.50;;
57697;SDS011;43531;52.152;6.366;2022-11-23T00:07:17;6.15;;;4.03;;
57697;SDS011;43531;52.152;6.366;2022-11-23T00:07:49;7.47;;;4.35;;
57697;SDS011;43531;52.152;6.366;2022-11-23T00:08:20;8.75;;;4.90;;
57697;SDS011;43531;52.152;6.366;2022-11-23T00:08:52;7.70;;;4.78;;
57697;SDS011;43531;52.152;6.366;2022-11-23T00:09:24;8.27;;;5.03;;
57697;SDS011;43531;52.152;6.366;2022-11-23T00:09:56;6.35;;;4.40;;
57697;SDS011;43531;52.152;6.366;2022-11-23T00:10:27;6.93;;;4.55;;
57697;SDS011;43531;52.152;6.366;2022-11-23T00:10:59;9.27;;;4.75;;
57697;SDS011;43531;52.152;6.366;2022-11-23T00:11:32;6.82;;;4.13;;
57697;SDS011;43531;52.152;6.366;2022-11-23T00:12:04;8.27;;;4.90;;
57697;SDS011;43531;52.152;6.366;2022-11-23T00:12:35;10.20;;;4.40;;
57697;SDS011;43531;52.152;6.366;2022-11-23T00:13:07;7.72;;;5.00;;
57697;SDS011;43531;52.152;6.366;2022-11-23T00:13:39;8.95;;;6.82;;
57697;SDS011;43531;52.152;6.366;2022-11-23T00:14:11;9.90;;;5.47;;
57697;SDS011;43531;52.152;6.366;2022-11-23T00:14:42;6.40;;;4.75;;
57697;SDS011;43531;52.152;6.366;2022-11-23T00:15:14;9.32;;;4.72;;
57697;SDS011;43531;52.152;6.366;2022-11-23T00:15:45;7.75;;;4.90;;
57697;SDS011;43531;52.152;6.366;2022-11-23T00:16:18;9.80;;;4.78;;
57697;SDS011;43531;52.152;6.366;2022-11-23T00:16:51;8.10;;;5.03;;
57697;SDS011;43531;52.152;6.366;2022-11-23T00:17:22;6.88;;;4.30;;
57697;SDS011;43531;52.152;6.366;2022-11-23T00:17:54;7.05;;;5.10;;
57697;SDS011;43531;52.152;6.366;2022-11-23T00:18:25;10.73;;;5.22;;
57697;SDS011;43531;52.152;6.366;2022-11-23T00:18:58;12.02;;;4.50;;
57697;SDS011;43531;52.152;6.366;2022-11-23T00:19:30;9.32;;;4.47;;
57697;SDS011;43531;52.152;6.366;2022-11-23T00:20:02;4.30;;;3.88;;
57697;SDS011;43531;52.152;6.366;2022-11-23T00:20:34;10.82;;;4.78;;
57697;SDS011;43531;52.152;6.366;2022-11-23T00:21:11;9.85;;;5.35;;
57697;SDS011;43531;52.152;6.366;2022-11-23T00:21:44;7.63;;;4.25;;
57697;SDS011;43531;52.152;6.366;2022-11-23T00:22:16;8.93;;;5.03;;
57697;SDS011;43531;52.152;6.366;2022-11-23T00:22:47;14.38;;;4.80;;
57697;SDS011;43531;52.152;6.366;2022-11-23T00:23:18;10.82;;;6.38;;
57697;SDS011;43531;52.152;6.366;2022-11-23T00:23:50;6.50;;;3.95;;
57697;SDS011;43531;52.152;6.366;2022-11-23T00:24:22;10.05;;;6.45;;
57697;SDS011;43531;52.152;6.366;2022-11-23T00:24:53;5.72;;;4.20;;
57697;SDS011;43531;52.152;6.366;2022-11-23T00:25:25;6.53;;;4.22;;
57697;SDS011;43531;52.152;6.366;2022-11-23T00:25:56;10.48;;;4.35;;
57697;SDS011;43531;52.152;6.366;2022-11-23T00:26:28;6.80;;;4.05;;
57697;SDS011;43531;52.152;6.366;2022-11-23T00:26:59;6.80;;;4.20;;
57697;SDS011;43531;52.152;6.366;2022-11-23T00:27:31;6.28;;;4.50;;
57697;SDS011;43531;52.152;6.366;2022-11-23T00:28:02;10.65;;;4.85;;
57697;SDS011;43531;52.152;6.366;2022-11-23T00:28:34;9.15;;;4.95;;
57697;SDS011;43531;52.152;6.366;2022-11-23T00:29:09;7.82;;;4.97;;
57697;SDS011;43531;52.152;6.366;2022-11-23T00:29:42;9.23;;;4.47;;
57697;SDS011;43531;52.152;6.366;2022-11-23T00:30:14;6.50;;;4.82;;
57697;SDS011;43531;52.152;6.366;2022-11-23T00:30:48;7.22;;;4.50;;
57697;SDS011;43531;52.152;6.366;2022-11-23T00:31:20;10.35;;;4.68;;
57697;SDS011;43531;52.152;6.366;2022-11-23T00:31:52;8.88;;;4.90;;
57697;SDS011;43531;52.152;6.366;2022-11-23T00:32:23;7.07;;;4.00;;
57697;SDS011;43531;52.152;6.366;2022-11-23T00:32:55;5.25;;;4.30;;
57697;SDS011;43531;52.152;6.366;2022-11-23T00:33:26;8.73;;;4.85;;
57697;SDS011;43531;52.152;6.366;2022-11-23T00:33:58;8.73;;;4.97;;
57697;SDS011;43531;52.152;6.366;2022-11-23T00:34:30;7.57;;;4.90;;
57697;SDS011;43531;52.152;6.366;2022-11-23T00:35:02;5.85;;;4.72;;
57697;SDS011;43531;52.152;6.366;2022-11-23T00:35:34;6.65;;;4.93;;
57697;SDS011;43531;52.152;6.366;2022-11-23T00:36:07;9.35;;;4.95;;
57697;SDS011;43531;52.152;6.366;2022-11-23T00:36:42;9.73;;;4.28;;
57697;SDS011;43531;52.152;6.366;2022-11-23T00:37:14;8.50;;;4.35;;
57697;SDS011;43531;52.152;6.366;2022-11-23T00:37:46;10.63;;;4.82;;
57697;SDS011;43531;52.152;6.366;2022-11-23T00:38:17;8.45;;;4.47;;
57697;SDS011;43531;52.152;6.366;2022-11-23T00:38:49;6.85;;;5.13;;
57697;SDS011;43531;52.152;6.366;2022-11-23T00:39:21;6.97;;;5.03;;
57697;SDS011;43531;52.152;6.366;2022-11-23T00:39:53;11.25;;;5.40;;
57697;SDS011;43531;52.152;6.366;2022-11-23T00:40:24;13.57;;;5.22;;
57697;SDS011;43531;52.152;6.366;2022-11-23T00:41:29;8.35;;;5.45;;
57697;SDS011;43531;52.152;6.366;2022-11-23T00:41:54;7.28;;;4.32;;
57697;SDS011;43531;52.152;6.366;2022-11-23T00:42:25;7.68;;;5.03;;
57697;SDS011;43531;52.152;6.366;2022-11-23T00:42:57;8.15;;;4.57;;
57697;SDS011;43531;52.152;6.366;2022-11-23T00:43:29;7.10;;;5.10;;
57697;SDS011;43531;52.152;6.366;2022-11-23T00:44:01;7.00;;;4.40;;
57697;SDS011;43531;52.152;6.366;2022-11-23T00:44:32;8.90;;;5.00;;
57697;SDS011;43531;52.152;6.366;2022-11-23T00:45:04;11.60;;;5.65;;
57697;SDS011;43531;52.152;6.366;2022-11-23T00:45:36;9.30;;;5.20;;
57697;SDS011;43531;52.152;6.366;2022-11-23T00:46:09;5.82;;;4.45;;
57697;SDS011;43531;52.152;6.366;2022-11-23T00:46:44;9.35;;;5.05;;
57697;SDS011;43531;52.152;6.366;2022-11-23T00:47:16;6.18;;;4.38;;
57697;SDS011;43531;52.152;6.366;2022-11-23T00:47:47;6.97;;;5.18;;
57697;SDS011;43531;52.152;6.366;2022-11-23T00:48:19;10.48;;;5.13;;
57697;SDS011;43531;52.152;6.366;2022-11-23T00:48:51;9.98;;;4.95;;
57697;SDS011;43531;52.152;6.366;2022-11-23T00:49:25;5.60;;;3.90;;
57697;SDS011;43531;52.152;6.366;2022-11-23T00:49:57;13.52;;;5.50;;
57697;SDS011;43531;52.152;6.366;2022-11-23T00:50:28;7.35;;;5.35;;
57697;SDS011;43531;52.152;6.366;2022-11-23T00:51:01;9.45;;;5.13;;
57697;SDS011;43531;52.152;6.366;2022-11-23T00:51:33;5.72;;;4.53;;
57697;SDS011;43531;52.152;6.366;2022-11-23T00:52:06;9.40;;;4.72;;
57697;SDS011;43531;52.152;6.366;2022-11-23T00:52:38;10.38;;;5.90;;
57697;SDS011;43531;52.152;6.366;2022-11-23T00:53:09;9.50;;;5.55;;
57697;SDS011;43531;52.152;6.366;2022-11-23T00:53:41;9.40;;;4.55;;
57697;SDS011;43531;52.152;6.366;2022-11-23T00:54:14;9.85;;;5.38;;
57697;SDS011;43531;52.152;6.366;2022-11-23T00:54:45;10.82;;;5.25;;
57697;SDS011;43531;52.152;6.366;2022-11-23T00:55:17;7.75;;;4.80;;
57697;SDS011;43531;52.152;6.366;2022-11-23T00:55:52;11.00;;;5.05;;
57697;SDS011;43531;52.152;6.366;2022-11-23T00:56:24;11.07;;;4.85;;
57697;SDS011;43531;52.152;6.366;2022-11-23T00:56:56;10.38;;;4.75;;
57697;SDS011;43531;52.152;6.366;2022-11-23T00:57:29;14.43;;;4.90;;
57697;SDS011;43531;52.152;6.366;2022-11-23T00:58:01;9.20;;;5.60;;
57697;SDS011;43531;52.152;6.366;2022-11-23T00:58:33;10.20;;;5.10;;
57697;SDS011;43531;52.152;6.366;2022-11-23T00:59:05;7.35;;;5.00;;
57697;SDS011;43531;52.152;6.366;2022-11-23T00:59:37;10.48;;;6.47;;
57697;SDS011;43531;52.152;6.366;2022-11-23T01:00:08;12.30;;;5.82;;
57697;SDS011;43531;52.152;6.366;2022-11-23T01:00:43;8.88;;;4.90;;
57697;SDS011;43531;52.152;6.366;2022-11-23T01:01:15;10.40;;;5.68;;
57697;SDS011;43531;52.152;6.366;2022-11-23T01:01:48;13.38;;;4.75;;
57697;SDS011;43531;52.152;6.366;2022-11-23T01:02:20;11.57;;;5.68;;
57697;SDS011;43531;52.152;6.366;2022-11-23T01:02:51;6.68;;;4.85;;
57697;SDS011;43531;52.152;6.366;2022-11-23T01:03:24;12.07;;;4.85;;
57697;SDS011;43531;52.152;6.366;2022-11-23T01:03:56;7.30;;;5.00;;
57697;SDS011;43531;52.152;6.366;2022-11-23T01:04:32;7.00;;;5.13;;
57697;SDS011;43531;52.152;6.366;2022-11-23T01:05:04;10.25;;;5.35;;
57697;SDS011;43531;52.152;6.366;2022-11-23T01:05:36;13.93;;;5.75;;
57697;SDS011;43531;52.152;6.366;2022-11-23T01:06:09;7.13;;;5.25;;
57697;SDS011;43531;52.152;6.366;2022-11-23T01:06:41;11.48;;;4.68;;
57697;SDS011;43531;52.152;6.366;2022-11-23T01:07:13;6.57;;;4.40;;
57697;SDS011;43531;52.152;6.366;2022-11-23T01:07:45;9.13;;;5.18;;
57697;SDS011;43531;52.152;6.366;2022-11-23T01:08:16;5.50;;;4.97;;
57697;SDS011;43531;52.152;6.366;2022-11-23T01:08:48;7.00;;;5.32;;
57697;SDS011;43531;52.152;6.366;2022-11-23T01:09:21;7.85;;;4.65;;
57697;SDS011;43531;52.152;6.366;2022-11-23T01:09:56;11.38;;;5.03;;
57697;SDS011;43531;52.152;6.366;2022-11-23T01:10:28;5.70;;;5.18;;
57697;SDS011;43531;52.152;6.366;2022-11-23T01:11:01;5.85;;;5.22;;
57697;SDS011;43531;52.152;6.366;2022-11-23T01:11:34;8.10;;;5.45;;
57697;SDS011;43531;52.152;6.366;2022-11-23T01:12:05;10.45;;;4.53;;
57697;SDS011;43531;52.152;6.366;2022-11-23T01:12:37;9.48;;;5.65;;
57697;SDS011;43531;52.152;6.366;2022-11-23T01:13:10;6.50;;;4.95;;
57697;SDS011;43531;52.152;6.366;2022-11-23T01:13:41;7.40;;;5.90;;
57697;SDS011;43531;52.152;6.366;2022-11-23T01:14:14;10.43;;;5.80;;
57697;SDS011;43531;52.152;6.366;2022-11-23T01:14:47;13.68;;;5.45;;
57697;SDS011;43531;52.152;6.366;2022-11-23T01:15:18;8.25;;;5.43;;
57697;SDS011;43531;52.152;6.366;2022-11-23T01:15:50;6.45;;;5.30;;
57697;SDS011;43531;52.152;6.366;2022-11-23T01:16:24;11.13;;;5.60;;
57697;SDS011;43531;52.152;6.366;2022-11-23T01:16:56;10.95;;;5.35;;
57697;SDS011;43531;52.152;6.366;2022-11-23T01:17:29;8.23;;;5.43;;
57697;SDS011;43531;52.152;6.366;2022-11-23T01:18:00;8.55;;;4.85;;
57697;SDS011;43531;52.152;6.366;2022-11-23T01:18:34;9.98;;;5.63;;
57697;SDS011;43531;52.152;6.366;2022-11-23T01:19:15;6.93;;;5.32;;
57697;SDS011;43531;52.152;6.366;2022-11-23T01:19:51;7.25;;;4.43;;
57697;SDS011;43531;52.152;6.366;2022-11-23T01:20:23;10.00;;;5.13;;
57697;SDS011;43531;52.152;6.366;2022-11-23T01:20:54;10.75;;;5.20;;
57697;SDS011;43531;52.152;6.366;2022-11-23T01:21:26;10.05;;;5.68;;
57697;SDS011;43531;52.152;6.366;2022-11-23T01:21:59;10.00;;;5.63;;
57697;SDS011;43531;52.152;6.366;2022-11-23T01:22:30;6.20;;;5.60;;
57697;SDS011;43531;52.152;6.366;2022-11-23T01:23:02;10.45;;;5.80;;
57697;SDS011;43531;52.152;6.366;2022-11-23T01:23:33;8.02;;;5.78;;
57697;SDS011;43531;52.152;6.366;2022-11-23T01:24:07;9.00;;;6.10;;
57697;SDS011;43531;52.152;6.366;2022-11-23T01:24:42;9.95;;;5.70;;
57697;SDS011;43531;52.152;6.366;2022-11-23T01:25:14;9.05;;;5.68;;
57697;SDS011;43531;52.152;6.366;2022-11-23T01:25:46;8.02;;;5.97;;
57697;SDS011;43531;52.152;6.366;2022-11-23T01:26:17;6.82;;;5.50;;
57697;SDS011;43531;52.152;6.366;2022-11-23T01:26:53;11.10;;;6.45;;
57697;SDS011;43531;52.152;6.366;2022-11-23T01:27:25;10.88;;;6.45;;
57697;SDS011;43531;52.152;6.366;2022-11-23T01:27:56;9.05;;;5.97;;
57697;SDS011;43531;52.152;6.366;2022-11-23T01:28:29;10.10;;;6.55;;
57697;SDS011;43531;52.152;6.366;2022-11-23T01:29:01;9.60;;;5.85;;
57697;SDS011;43531;52.152;6.366;2022-11-23T01:29:33;12.38;;;6.50;;
57697;SDS011;43531;52.152;6.366;2022-11-23T01:30:05;11.32;;;6.93;;
57697;SDS011;43531;52.152;6.366;2022-11-23T01:30:37;10.65;;;6.30;;
57697;SDS011;43531;52.152;6.366;2022-11-23T01:31:10;13.70;;;6.65;;
57697;SDS011;43531;52.152;6.366;2022-11-23T01:31:48;9.63;;;5.95;;
57697;SDS011;43531;52.152;6.366;2022-11-23T01:32:19;8.57;;;7.22;;
57697;SDS011;43531;52.152;6.366;2022-11-23T01:32:50;12.23;;;5.85;;
57697;SDS011;43531;52.152;6.366;2022-11-23T01:33:22;10.98;;;6.10;;
57697;SDS011;43531;52.152;6.366;2022-11-23T01:33:54;11.48;;;7.40;;
57697;SDS011;43531;52.152;6.366;2022-11-23T01:34:27;8.18;;;6.15;;
57697;SDS011;43531;52.152;6.366;2022-11-23T01:35:01;10.10;;;6.35;;
57697;SDS011;43531;52.152;6.366;2022-11-23T01:35:33;7.53;;;6.65;;
57697;SDS011;43531;52.152;6.366;2022-11-23T01:36:38;12.52;;;7.05;;
57697;SDS011;43531;52.152;6.366;2022-11-23T01:37:02;9.32;;;5.95;;
57697;SDS011;43531;52.152;6.366;2022-11-23T01:37:34;9.38;;;6.38;;
57697;SDS011;43531;52.152;6.366;2022-11-23T01:38:05;8.25;;;6.15;;
57697;SDS011;43531;52.152;6.366;2022-11-23T01:38:37;11.32;;;6.03;;
57697;SDS011;43531;52.152;6.366;2022-11-23T01:39:09;14.85;;;8.10;;
57697;SDS011;43531;52.152;6.366;2022-11-23T01:39:41;16.50;;;6.82;;
57697;SDS011;43531;52.152;6.366;2022-11-23T01:40:12;10.18;;;7.10;;
57697;SDS011;43531;52.152;6.366;2022-11-23T01:40:44;12.77;;;6.65;;
57697;SDS011;43531;52.152;6.366;2022-11-23T01:41:18;10.65;;;7.93;;
57697;SDS011;43531;52.152;6.366;2022-11-23T01:41:51;7.72;;;6.95;;
57697;SDS011;43531;52.152;6.366;2022-11-23T01:42:36;10.23;;;7.18;;
57697;SDS011;43531;52.152;6.366;2022-11-23T01:43:33;11.63;;;7.00;;
57697;SDS011;43531;52.152;6.366;2022-11-23T01:44:24;10.70;;;6.93;;
57697;SDS011;43531;52.152;6.366;2022-11-23T01:46:00;12.05;;;7.82;;
57697;SDS011;43531;52.152;6.366;2022-11-23T01:46:06;9.05;;;6.80;;
57697;SDS011;43531;52.152;6.366;2022-11-23T01:46:38;10.77;;;7.13;;
57697;SDS011;43531;52.152;6.366;2022-11-23T01:47:09;12.50;;;6.72;;
57697;SDS011;43531;52.152;6.366;2022-11-23T01:47:41;12.95;;;6.40;;
57697;SDS011;43531;52.152;6.366;2022-11-23T01:48:14;13.93;;;7.78;;
57697;SDS011;43531;52.152;6.366;2022-11-23T01:49:02;9.18;;;6.97;;
57697;SDS011;43531;52.152;6.366;2022-11-23T01:49:46;10.13;;;6.40;;
57697;SDS011;43531;52.152;6.366;2022-11-23T01:50:20;10.10;;;6.03;;
57697;SDS011;43531;52.152;6.366;2022-11-23T01:50:52;10.50;;;7.15;;
57697;SDS011;43531;52.152;6.366;2022-11-23T01:51:28;11.73;;;7.45;;
57697;SDS011;43531;52.152;6.366;2022-11-23T01:52:03;8.13;;;6.07;;
57697;SDS011;43531;52.152;6.366;2022-11-23T01:52:37;15.38;;;6.97;;
57697;SDS011;43531;52.152;6.366;2022-11-23T01:53:08;13.80;;;7.13;;
57697;SDS011;43531;52.152;6.366;2022-11-23T01:53:40;12.35;;;6.63;;
57697;SDS011;43531;52.152;6.366;2022-11-23T01:54:21;15.73;;;7.25;;
57697;SDS011;43531;52.152;6.366;2022-11-23T01:54:55;14.60;;;6.93;;
57697;SDS011;43531;52.152;6.366;2022-11-23T01:55:31;11.15;;;6.80;;
57697;SDS011;43531;52.152;6.366;2022-11-23T01:56:04;17.80;;;6.72;;
57697;SDS011;43531;52.152;6.366;2022-11-23T01:56:38;14.40;;;7.07;;
57697;SDS011;43531;52.152;6.366;2022-11-23T01:57:12;14.65;;;6.28;;
57697;SDS011;43531;52.152;6.366;2022-11-23T01:58:04;21.10;;;6.68;;
57697;SDS011;43531;52.152;6.366;2022-11-23T01:58:37;11.02;;;7.18;;
57697;SDS011;43531;52.152;6.366;2022-11-23T01:59:11;15.77;;;6.90;;
57697;SDS011;43531;52.152;6.366;2022-11-23T01:59:46;16.00;;;6.40;;
57697;SDS011;43531;52.152;6.366;2022-11-23T02:00:19;11.95;;;6.97;;
57697;SDS011;43531;52.152;6.366;2022-11-23T02:00:51;14.55;;;9.07;;
57697;SDS011;43531;52.152;6.366;2022-11-23T02:01:22;17.05;;;7.05;;
57697;SDS011;43531;52.152;6.366;2022-11-23T02:01:54;13.40;;;6.82;;
57697;SDS011;43531;52.152;6.366;2022-11-23T02:02:26;16.67;;;6.75;;
57697;SDS011;43531;52.152;6.366;2022-11-23T02:02:59;12.20;;;8.30;;
57697;SDS011;43531;52.152;6.366;2022-11-23T02:03:32;14.68;;;7.05;;
57697;SDS011;43531;52.152;6.366;2022-11-23T02:04:08;13.57;;;7.50;;
57697;SDS011;43531;52.152;6.366;2022-11-23T02:04:48;15.20;;;6.63;;
57697;SDS011;43531;52.152;6.366;2022-11-23T02:05:24;14.27;;;8.52;;
57697;SDS011;43531;52.152;6.366;2022-11-23T02:06:00;15.68;;;7.20;;
57697;SDS011;43531;52.152;6.366;2022-11-23T02:06:33;11.20;;;7.50;;
57697;SDS011;43531;52.152;6.366;2022-11-23T02:07:05;14.50;;;7.22;;
57697;SDS011;43531;52.152;6.366;2022-11-23T02:07:37;12.52;;;6.88;;
57697;SDS011;43531;52.152;6.366;2022-11-23T02:08:10;23.30;;;6.90;;
57697;SDS011;43531;52.152;6.366;2022-11-23T02:08:42;9.77;;;6.53;;
57697;SDS011;43531;52.152;6.366;2022-11-23T02:09:14;14.68;;;8.05;;
57697;SDS011;43531;52.152;6.366;2022-11-23T02:09:47;19.38;;;6.78;;
57697;SDS011;43531;52.152;6.366;2022-11-23T02:10:19;11.32;;;6.97;;
57697;SDS011;43531;52.152;6.366;2022-11-23T02:10:51;10.15;;;8.07;;
57697;SDS011;43531;52.152;6.366;2022-11-23T02:11:23;18.25;;;8.27;;
57697;SDS011;43531;52.152;6.366;2022-11-23T02:11:55;13.95;;;6.55;;
57697;SDS011;43531;52.152;6.366;2022-11-23T02:12:27;15.45;;;7.35;;
57697;SDS011;43531;52.152;6.366;2022-11-23T02:12:59;15.43;;;7.53;;
57697;SDS011;43531;52.152;6.366;2022-11-23T02:13:38;10.20;;;7.13;;
57697;SDS011;43531;52.152;6.366;2022-11-23T02:14:11;12.57;;;6.80;;
57697;SDS011;43531;52.152;6.366;2022-11-23T02:14:43;17.08;;;7.40;;
57697;SDS011;43531;52.152;6.366;2022-11-23T02:15:15;17.42;;;7.53;;
57697;SDS011;43531;52.152;6.366;2022-11-23T02:15:47;10.48;;;6.75;;
57697;SDS011;43531;52.152;6.366;2022-11-23T02:16:20;12.30;;;7.28;;
57697;SDS011;43531;52.152;6.366;2022-11-23T02:16:52;13.18;;;7.53;;
57697;SDS011;43531;52.152;6.366;2022-11-23T02:17:23;12.40;;;7.55;;
57697;SDS011;43531;52.152;6.366;2022-11-23T02:17:57;13.77;;;7.97;;
57697;SDS011;43531;52.152;6.366;2022-11-23T02:18:30;17.02;;;7.32;;
57697;SDS011;43531;52.152;6.366;2022-11-23T02:19:03;15.75;;;8.15;;
57697;SDS011;43531;52.152;6.366;2022-11-23T02:19:43;15.75;;;7.35;;
57697;SDS011;43531;52.152;6.366;2022-11-23T02:20:17;9.82;;;6.78;;
57697;SDS011;43531;52.152;6.366;2022-11-23T02:20:52;14.15;;;7.60;;
57697;SDS011;43531;52.152;6.366;2022-11-23T02:21:24;10.15;;;6.70;;
57697;SDS011;43531;52.152;6.366;2022-11-23T02:21:55;13.02;;;6.93;;
57697;SDS011;43531;52.152;6.366;2022-11-23T02:22:42;19.45;;;7.88;;
57697;SDS011;43531;52.152;6.366;2022-11-23T02:24:19;17.67;;;7.25;;
57697;SDS011;43531;52.152;6.366;2022-11-23T02:24:55;11.48;;;8.10;;
57697;SDS011;43531;52.152;6.366;2022-11-23T02:26:22;15.38;;;6.88;;
57697;SDS011;43531;52.152;6.366;2022-11-23T02:26:55;12.57;;;7.43;;
57697;SDS011;43531;52.152;6.366;2022-11-23T02:27:30;16.77;;;7.03;;
57697;SDS011;43531;52.152;6.366;2022-11-23T02:28:02;15.73;;;7.38;;
57697;SDS011;43531;52.152;6.366;2022-11-23T02:28:41;15.60;;;7.15;;
57697;SDS011;43531;52.152;6.366;2022-11-23T02:29:51;12.40;;;6.38;;
57697;SDS011;43531;52.152;6.366;2022-11-23T02:30:24;15.68;;;7.35;;
57697;SDS011;43531;52.152;6.366;2022-11-23T02:30:56;17.48;;;8.40;;
57697;SDS011;43531;52.152;6.366;2022-11-23T02:31:28;15.45;;;7.00;;
57697;SDS011;43531;52.152;6.366;2022-11-23T02:32:00;19.10;;;7.90;;
57697;SDS011;43531;52.152;6.366;2022-11-23T02:32:31;14.85;;;8.32;;
57697;SDS011;43531;52.152;6.366;2022-11-23T02:33:04;20.20;;;10.27;;
57697;SDS011;43531;52.152;6.366;2022-11-23T02:33:37;12.60;;;7.97;;
57697;SDS011;43531;52.152;6.366;2022-11-23T02:34:09;15.23;;;7.65;;
57697;SDS011;43531;52.152;6.366;2022-11-23T02:34:41;11.80;;;7.65;;
57697;SDS011;43531;52.152;6.366;2022-11-23T02:35:12;13.68;;;7.97;;
57697;SDS011;43531;52.152;6.366;2022-11-23T02:35:50;15.68;;;7.80;;
57697;SDS011;43531;52.152;6.366;2022-11-23T02:37:20;13.65;;;7.07;;
57697;SDS011;43531;52.152;6.366;2022-11-23T02:37:55;11.65;;;7.07;;
57697;SDS011;43531;52.152;6.366;2022-11-23T02:38:30;14.48;;;7.43;;
57697;SDS011;43531;52.152;6.366;2022-11-23T02:39:11;15.75;;;7.25;;
57697;SDS011;43531;52.152;6.366;2022-11-23T02:39:45;11.60;;;8.13;;
57697;SDS011;43531;52.152;6.366;2022-11-23T02:40:40;10.57;;;7.78;;
57697;SDS011;43531;52.152;6.366;2022-11-23T02:41:10;10.95;;;6.95;;
57697;SDS011;43531;52.152;6.366;2022-11-23T02:41:43;17.13;;;7.78;;
57697;SDS011;43531;52.152;6.366;2022-11-23T02:42:16;11.88;;;8.73;;
57697;SDS011;43531;52.152;6.366;2022-11-23T02:42:48;18.90;;;8.43;;
57697;SDS011;43531;52.152;6.366;2022-11-23T02:43:20;10.95;;;7.25;;
57697;SDS011;43531;52.152;6.366;2022-11-23T02:43:53;21.40;;;7.88;;
57697;SDS011;43531;52.152;6.366;2022-11-23T02:44:42;14.15;;;7.07;;
57697;SDS011;43531;52.152;6.366;2022-11-23T02:45:37;17.48;;;8.90;;
57697;SDS011;43531;52.152;6.366;2022-11-23T02:46:11;14.88;;;8.63;;
57697;SDS011;43531;52.152;6.366;2022-11-23T02:46:43;13.88;;;7.93;;
57697;SDS011;43531;52.152;6.366;2022-11-23T02:47:15;21.50;;;8.73;;
57697;SDS011;43531;52.152;6.366;2022-11-23T02:47:47;14.85;;;8.05;;
57697;SDS011;43531;52.152;6.366;2022-11-23T02:48:19;17.38;;;7.43;;
57697;SDS011;43531;52.152;6.366;2022-11-23T02:48:51;12.68;;;7.30;;
57697;SDS011;43531;52.152;6.366;2022-11-23T02:49:23;21.83;;;8.75;;
57697;SDS011;43531;52.152;6.366;2022-11-23T02:49:54;18.65;;;7.53;;
57697;SDS011;43531;52.152;6.366;2022-11-23T02:50:26;14.73;;;8.82;;
57697;SDS011;43531;52.152;6.366;2022-11-23T02:50:58;16.95;;;8.30;;
57697;SDS011;43531;52.152;6.366;2022-11-23T02:51:29;18.73;;;7.90;;
57697;SDS011;43531;52.152;6.366;2022-11-23T02:52:01;19.60;;;7.22;;
57697;SDS011;43531;52.152;6.366;2022-11-23T02:52:33;12.20;;;7.28;;
57697;SDS011;43531;52.152;6.366;2022-11-23T02:53:05;12.02;;;7.05;;
57697;SDS011;43531;52.152;6.366;2022-11-23T02:53:37;10.05;;;6.32;;
57697;SDS011;43531;52.152;6.366;2022-11-23T02:54:09;11.88;;;7.40;;
57697;SDS011;43531;52.152;6.366;2022-11-23T02:54:41;12.80;;;7.05;;
57697;SDS011;43531;52.152;6.366;2022-11-23T02:55:13;16.25;;;6.45;;
57697;SDS011;43531;52.152;6.366;2022-11-23T02:55:44;10.88;;;6.35;;
57697;SDS011;43531;52.152;6.366;2022-11-23T02:56:16;18.70;;;8.23;;
57697;SDS011;43531;52.152;6.366;2022-11-23T02:56:50;15.45;;;7.25;;
57697;SDS011;43531;52.152;6.366;2022-11-23T02:57:22;12.85;;;7.00;;
57697;SDS011;43531;52.152;6.366;2022-11-23T02:57:54;13.02;;;7.22;;
57697;SDS011;43531;52.152;6.366;2022-11-23T02:58:25;15.30;;;6.88;;
57697;SDS011;43531;52.152;6.366;2022-11-23T02:58:57;17.58;;;6.75;;
57697;SDS011;43531;52.152;6.366;2022-11-23T02:59:28;12.05;;;6.13;;
57697;SDS011;43531;52.152;6.366;2022-11-23T03:00:03;14.32;;;7.45;;
57697;SDS011;43531;52.152;6.366;2022-11-23T03:00:36;11.45;;;6.78;;
57697;SDS011;43531;52.152;6.366;2022-11-23T03:01:08;18.65;;;6.85;;
57697;SDS011;43531;52.152;6.366;2022-11-23T03:01:39;13.63;;;6.60;;
57697;SDS011;43531;52.152;6.366;2022-11-23T03:02:11;13.73;;;6.15;;
57697;SDS011;43531;52.152;6.366;2022-11-23T03:02:42;10.80;;;6.20;;
57697;SDS011;43531;52.152;6.366;2022-11-23T03:03:15;15.32;;;6.57;;
57697;SDS011;43531;52.152;6.366;2022-11-23T03:03:46;12.93;;;5.82;;
57697;SDS011;43531;52.152;6.366;2022-11-23T03:04:18;12.32;;;5.95;;
57697;SDS011;43531;52.152;6.366;2022-11-23T03:04:57;15.80;;;5.88;;
57697;SDS011;43531;52.152;6.366;2022-11-23T03:05:29;13.18;;;6.35;;
57697;SDS011;43531;52.152;6.366;2022-11-23T03:06:00;13.00;;;8.30;;
57697;SDS011;43531;52.152;6.366;2022-11-23T03:06:32;12.68;;;5.10;;
57697;SDS011;43531;52.152;6.366;2022-11-23T03:07:04;12.73;;;6.50;;
57697;SDS011;43531;52.152;6.366;2022-11-23T03:07:36;16.23;;;7.55;;
57697;SDS011;43531;52.152;6.366;2022-11-23T03:08:09;9.45;;;5.68;;
57697;SDS011;43531;52.152;6.366;2022-11-23T03:08:42;16.63;;;6.82;;
57697;SDS011;43531;52.152;6.366;2022-11-23T03:09:13;20.80;;;5.85;;
57697;SDS011;43531;52.152;6.366;2022-11-23T03:09:45;15.90;;;6.35;;
57697;SDS011;43531;52.152;6.366;2022-11-23T03:10:17;14.55;;;5.82;;
57697;SDS011;43531;52.152;6.366;2022-11-23T03:10:51;12.27;;;5.25;;
57697;SDS011;43531;52.152;6.366;2022-11-23T03:11:23;11.95;;;6.28;;
57697;SDS011;43531;52.152;6.366;2022-11-23T03:11:55;9.25;;;5.38;;
57697;SDS011;43531;52.152;6.366;2022-11-23T03:12:28;11.45;;;4.72;;
57697;SDS011;43531;52.152;6.366;2022-11-23T03:13:01;15.07;;;5.00;;
57697;SDS011;43531;52.152;6.366;2022-11-23T03:13:36;12.45;;;4.82;;
57697;SDS011;43531;52.152;6.366;2022-11-23T03:14:08;13.65;;;5.28;;
57697;SDS011;43531;52.152;6.366;2022-11-23T03:14:47;10.52;;;4.97;;
57697;SDS011;43531;52.152;6.366;2022-11-23T03:15:20;13.60;;;4.68;;
57697;SDS011;43531;52.152;6.366;2022-11-23T03:15:55;13.02;;;4.85;;
57697;SDS011;43531;52.152;6.366;2022-11-23T03:16:30;17.20;;;6.18;;
57697;SDS011;43531;52.152;6.366;2022-11-23T03:17:04;11.05;;;4.50;;
57697;SDS011;43531;52.152;6.366;2022-11-23T03:17:40;17.90;;;5.75;;
57697;SDS011;43531;52.152;6.366;2022-11-23T03:18:16;11.27;;;5.00;;
57697;SDS011;43531;52.152;6.366;2022-11-23T03:18:49;10.45;;;4.60;;
57697;SDS011;43531;52.152;6.366;2022-11-23T03:19:21;12.80;;;4.28;;
57697;SDS011;43531;52.152;6.366;2022-11-23T03:19:54;11.30;;;5.97;;
57697;SDS011;43531;52.152;6.366;2022-11-23T03:20:27;13.95;;;4.90;;
57697;SDS011;43531;52.152;6.366;2022-11-23T03:21:02;9.52;;;4.95;;
57697;SDS011;43531;52.152;6.366;2022-11-23T03:21:35;11.27;;;4.82;;
57697;SDS011;43531;52.152;6.366;2022-11-23T03:22:10;8.82;;;4.25;;
57697;SDS011;43531;52.152;6.366;2022-11-23T03:22:42;10.15;;;5.28;;